createdAt,value
2019-03-15T03:07:38.547Z,21.8
2019-03-15T03:08:28.066Z,21.9
2019-03-15T03:09:17.925Z,21.9
2019-03-15T03:10:09.047Z,21.9
2019-03-15T03:11:00.108Z,22.1
2019-03-15T03:11:50.536Z,22.1
2019-03-15T03:12:38.061Z,22.2
2019-03-15T03:13:28.946Z,22.2
2019-03-15T03:14:19.043Z,22.3
2019-03-15T03:15:25.412Z,22.3
2019-03-15T03:15:58.913Z,22.4
2019-03-15T03:16:50.936Z,22.4
2019-03-15T03:17:40.968Z,22.4
2019-03-15T03:18:29.311Z,22.5
2019-03-15T03:19:18.917Z,22.6
2019-03-15T03:20:09.471Z,22.6
2019-03-15T03:20:59.021Z,22.6
2019-03-15T03:21:48.761Z,22.6
2019-03-15T03:22:40.341Z,22.6
2019-03-15T03:23:28.649Z,22.7
2019-03-15T03:24:19.254Z,22.7
2019-03-15T03:25:09.503Z,22.6
2019-03-15T03:25:58.803Z,22.6
2019-03-15T03:26:50.018Z,22.6
2019-03-15T03:27:40.661Z,22.6
2019-03-15T03:28:31.195Z,22.5
2019-03-15T03:29:21.018Z,22.5
2019-03-15T03:30:09.695Z,22.4
2019-03-15T03:30:59.639Z,22.4
2019-03-15T03:31:52.520Z,22.4
2019-03-15T03:32:45.184Z,22.4
2019-03-15T03:33:29.766Z,22.3
2019-03-15T03:34:20.263Z,22.3
2019-03-15T03:35:14.813Z,22.3
2019-03-15T03:36:01.521Z,22.3
2019-03-15T03:36:49.975Z,22.3
2019-03-15T03:37:54.564Z,22.3
2019-03-15T03:38:29.814Z,22.2
2019-03-15T03:39:20.300Z,22.2
2019-03-15T03:40:10.134Z,22.2
2019-03-15T03:41:02.047Z,22.1
2019-03-15T03:41:50.572Z,22.1
2019-03-15T03:42:40.632Z,22.1
2019-03-15T03:43:45.539Z,22.1
2019-03-15T03:44:20.629Z,22.1
2019-03-15T03:45:09.884Z,22
2019-03-15T03:46:00.002Z,22
2019-03-15T03:46:51.121Z,22
2019-03-15T03:47:40.651Z,21.9
2019-03-15T03:48:30.942Z,21.9
2019-03-15T03:49:20.984Z,21.9
2019-03-15T03:50:11.019Z,21.9
2019-03-15T03:51:04.747Z,21.9
2019-03-15T03:51:50.895Z,21.8
2019-03-15T03:52:44.327Z,21.8
2019-03-15T03:53:31.036Z,21.8
2019-03-15T03:54:20.934Z,21.8
2019-03-15T03:55:11.273Z,21.8
2019-03-15T03:56:00.627Z,21.8
2019-03-15T03:56:51.498Z,21.8
2019-03-15T03:57:41.843Z,21.9
2019-03-15T03:58:31.618Z,21.9
2019-03-15T03:59:21.542Z,22
2019-03-15T04:00:11.293Z,22.1
2019-03-15T04:01:00.776Z,22.1
2019-03-15T04:01:51.736Z,22.1
2019-03-15T04:02:42.697Z,22.2
2019-03-15T04:03:32.471Z,22.3
2019-03-15T04:04:21.988Z,22.3
2019-03-15T04:05:12.072Z,22.3
2019-03-15T04:06:01.850Z,22.3
2019-03-15T04:06:52.935Z,22.3
2019-03-15T04:07:42.261Z,22.3
2019-03-15T04:08:33.293Z,22.3
2019-03-15T04:09:22.631Z,22.2
2019-03-15T04:10:13.164Z,22.1
2019-03-15T04:11:02.673Z,22.1
2019-03-15T04:12:02.347Z,22
2019-03-15T04:12:42.848Z,21.9
2019-03-15T04:13:32.452Z,21.9
2019-03-15T04:14:23.069Z,21.9
2019-03-15T04:15:11.998Z,21.9
2019-03-15T04:16:03.076Z,21.9
2019-03-15T04:16:53.412Z,21.9
2019-03-15T04:17:42.968Z,22
2019-03-15T04:18:33.855Z,22.1
2019-03-15T04:19:23.075Z,22.1
2019-03-15T04:20:12.850Z,22.1
2019-03-15T04:21:02.928Z,22.2
2019-03-15T04:21:54.042Z,22.3
2019-03-15T04:22:43.842Z,22.3
2019-03-15T04:23:33.345Z,22.3
2019-03-15T04:24:23.942Z,22.4
2019-03-15T04:26:04.177Z,22.5
2019-03-15T04:26:54.401Z,22.5
2019-03-15T04:27:44.043Z,22.6
2019-03-15T04:28:32.310Z,22.6
2019-03-15T04:29:24.326Z,22.6
2019-03-15T04:30:15.249Z,22.6
2019-03-15T04:31:04.192Z,22.6
2019-03-15T04:31:54.241Z,22.6
2019-03-15T04:33:00.876Z,22.6
2019-03-15T04:33:33.773Z,22.6
2019-03-15T04:34:24.442Z,22.6
2019-03-15T04:35:15.086Z,22.5
2019-03-15T04:36:04.239Z,22.5
2019-03-15T04:36:54.300Z,22.4
2019-03-15T04:37:44.867Z,22.4
2019-03-15T04:38:34.749Z,22.4
2019-03-15T04:39:25.038Z,22.3
2019-03-15T04:40:14.071Z,22.3
2019-03-15T04:41:04.647Z,22.3
2019-03-15T04:41:54.379Z,22.3
2019-03-15T04:42:45.034Z,22.3
2019-03-15T04:43:34.527Z,22.3
2019-03-15T04:44:25.200Z,22.2
2019-03-15T04:45:15.463Z,22.2
2019-03-15T04:46:04.696Z,22.1
2019-03-15T04:46:55.614Z,22.1
2019-03-15T04:47:48.694Z,22.1
2019-03-15T04:48:35.211Z,22.1
2019-03-15T04:49:26.013Z,22.1
2019-03-15T04:50:15.912Z,22
2019-03-15T04:51:05.505Z,22
2019-03-15T04:51:55.918Z,22
2019-03-15T04:52:45.135Z,21.9
2019-03-15T04:53:35.415Z,21.9
2019-03-15T04:54:25.061Z,21.8
2019-03-15T04:55:15.515Z,21.7
2019-03-15T04:56:05.678Z,21.6
2019-03-15T04:56:56.281Z,21.6
2019-03-15T04:57:46.087Z,21.5
2019-03-15T04:58:36.168Z,21.5
2019-03-15T04:59:29.836Z,21.5
2019-03-15T05:00:16.197Z,21.4
2019-03-15T05:01:06.575Z,21.4
2019-03-15T05:01:56.598Z,21.4
2019-03-15T05:02:46.978Z,21.4
2019-03-15T05:03:36.216Z,21.4
2019-03-15T05:04:40.723Z,21.4
2019-03-15T05:05:16.629Z,21.5
2019-03-15T05:06:10.757Z,21.5
2019-03-15T05:06:56.780Z,21.6
2019-03-15T05:07:47.105Z,21.6
2019-03-15T05:08:36.643Z,21.6
2019-03-15T05:09:26.009Z,21.6
2019-03-15T05:10:16.707Z,21.6
2019-03-15T05:11:07.510Z,21.6
2019-03-15T05:11:56.850Z,21.6
2019-03-15T05:12:46.302Z,21.6
2019-03-15T05:13:37.477Z,21.5
2019-03-15T05:14:27.240Z,21.6
2019-03-15T05:15:17.089Z,21.5
2019-03-15T05:16:07.654Z,21.5
2019-03-15T05:16:57.250Z,21.5
2019-03-15T05:17:46.922Z,21.6
2019-03-15T05:18:36.902Z,21.6
2019-03-15T05:19:27.357Z,21.6
2019-03-15T05:20:20.954Z,21.6
2019-03-15T05:21:07.817Z,21.6
2019-03-15T05:22:12.772Z,21.5
2019-03-15T05:22:48.039Z,21.5
2019-03-15T05:23:38.134Z,21.5
2019-03-15T05:24:27.672Z,21.6
2019-03-15T05:25:33.232Z,21.6
2019-03-15T05:26:07.861Z,21.6
2019-03-15T05:26:58.687Z,21.5
2019-03-15T05:27:48.216Z,21.5
2019-03-15T05:28:38.253Z,21.5
2019-03-15T05:29:27.966Z,21.4
2019-03-15T05:30:18.915Z,21.4
2019-03-15T05:31:08.122Z,21.4
2019-03-15T05:31:58.816Z,21.4
2019-03-15T05:32:48.033Z,21.4
2019-03-15T05:33:38.616Z,21.4
2019-03-15T05:34:29.491Z,21.4
2019-03-15T05:35:18.989Z,21.4
2019-03-15T05:36:08.523Z,21.4
2019-03-15T05:36:59.410Z,21.4
2019-03-15T05:37:48.980Z,21.4
2019-03-15T05:38:41.751Z,21.4
2019-03-15T05:39:29.092Z,21.4
2019-03-15T05:40:19.078Z,21.5
2019-03-15T05:41:09.148Z,21.4
2019-03-15T05:41:58.645Z,21.4
2019-03-15T05:42:49.344Z,21.4
2019-03-15T05:43:39.038Z,21.4
2019-03-15T05:44:28.843Z,21.4
2019-03-15T05:45:19.452Z,21.4
2019-03-15T05:46:09.478Z,21.4
2019-03-15T05:46:59.335Z,21.3
2019-03-15T05:47:50.130Z,21.3
2019-03-15T05:48:39.712Z,21.3
2019-03-15T05:49:29.541Z,21.3
2019-03-15T05:50:19.022Z,21.3
2019-03-15T05:51:09.593Z,21.3
2019-03-15T05:52:00.537Z,21.4
2019-03-15T05:52:50.228Z,21.4
2019-03-15T05:53:40.312Z,21.5
2019-03-15T05:54:30.760Z,21.5
2019-03-15T05:55:20.415Z,21.5
2019-03-15T05:56:10.354Z,21.5
2019-03-15T05:56:59.952Z,21.5
2019-03-15T05:58:05.618Z,21.5
2019-03-15T05:58:40.349Z,21.6
2019-03-15T05:59:29.587Z,21.6
2019-03-15T06:00:19.647Z,21.6
2019-03-15T06:01:10.292Z,21.5
2019-03-15T06:02:00.591Z,21.5
2019-03-15T06:02:51.020Z,21.5
2019-03-15T06:05:36.973Z,21.5
2019-03-15T06:06:28.203Z,21.4
2019-03-15T06:07:18.457Z,21.5
2019-03-15T06:08:08.245Z,21.4
2019-03-15T06:08:58.419Z,21.4
2019-03-15T06:09:47.824Z,21.4
2019-03-15T06:10:37.606Z,21.4
2019-03-15T06:11:28.234Z,21.5
2019-03-15T06:12:18.589Z,21.4
2019-03-15T06:13:08.353Z,21.4
2019-03-15T06:13:57.931Z,21.4
2019-03-15T06:14:51.429Z,21.4
2019-03-15T06:15:37.981Z,21.4
2019-03-15T06:16:29.106Z,21.4
2019-03-15T06:17:19.154Z,21.4
2019-03-15T06:18:12.716Z,21.4
2019-03-15T06:18:59.078Z,21.4
2019-03-15T06:19:48.534Z,21.4
2019-03-15T06:20:39.427Z,21.4
2019-03-15T06:21:28.901Z,21.4
2019-03-15T06:22:19.356Z,21.4
2019-03-15T06:23:09.298Z,21.4
2019-03-15T06:23:59.645Z,21.4
2019-03-15T06:24:49.208Z,21.4
2019-03-15T06:25:38.981Z,21.4
2019-03-15T06:26:29.335Z,21.4
2019-03-15T06:27:19.859Z,21.4
2019-03-15T06:28:09.495Z,21.4
2019-03-15T06:29:03.148Z,21.4
2019-03-15T06:29:48.979Z,21.3
2019-03-15T06:30:40.177Z,21.3
2019-03-15T06:31:30.185Z,21.3
2019-03-15T06:32:20.298Z,21.3
2019-03-15T06:33:09.550Z,21.3
2019-03-15T06:34:00.060Z,21.3
2019-03-15T06:34:50.125Z,21.3
2019-03-15T06:35:39.351Z,21.3
2019-03-15T06:36:30.502Z,21.3
2019-03-15T06:37:20.038Z,21.3
2019-03-15T06:38:10.431Z,21.3
2019-03-15T06:39:00.457Z,21.3
2019-03-15T06:39:50.732Z,21.3
2019-03-15T06:40:40.261Z,21.3
2019-03-15T06:41:31.810Z,21.2
2019-03-15T06:42:20.652Z,21.2
2019-03-15T06:43:14.466Z,21.2
2019-03-15T06:44:01.167Z,21.2
2019-03-15T06:45:04.705Z,21.2
2019-03-15T06:45:45.062Z,21.2
2019-03-15T06:47:20.497Z,21.2
2019-03-15T06:53:10.867Z,21.2
2019-03-15T06:54:15.906Z,21.2
2019-03-15T06:54:51.821Z,21.3
2019-03-15T06:55:41.855Z,21.3
2019-03-15T06:56:31.933Z,21.3
2019-03-15T06:57:21.169Z,21.4
2019-03-15T06:58:11.907Z,21.4
2019-03-15T06:59:01.840Z,21.4
2019-03-15T06:59:51.036Z,21.5
2019-03-15T07:00:41.674Z,21.5
2019-03-15T07:01:31.716Z,21.5
2019-03-15T07:02:23.200Z,21.5
2019-03-15T07:03:12.968Z,21.5
2019-03-15T07:05:38.013Z,21.5
2019-03-15T07:06:28.161Z,21.6
2019-03-15T07:07:21.183Z,21.5
2019-03-15T07:08:08.770Z,21.5
2019-03-15T07:08:58.243Z,21.6
2019-03-15T07:09:48.029Z,21.5
2019-03-15T07:10:38.370Z,21.5
2019-03-15T07:11:27.123Z,21.5
2019-03-15T07:12:18.618Z,21.5
2019-03-15T07:13:08.843Z,21.5
2019-03-15T07:13:58.625Z,21.5
2019-03-15T07:14:49.231Z,21.4
2019-03-15T07:15:40.138Z,21.4
2019-03-15T07:16:28.835Z,21.4
2019-03-15T07:17:19.667Z,21.4
2019-03-15T07:18:08.920Z,21.4
2019-03-15T07:18:58.960Z,21.4
2019-03-15T07:19:48.477Z,21.4
2019-03-15T07:20:38.807Z,21.4
2019-03-15T07:21:29.473Z,21.4
2019-03-15T07:22:22.795Z,21.4
2019-03-15T07:23:09.012Z,21.4
2019-03-15T07:24:03.295Z,21.4
2019-03-15T07:24:50.767Z,21.4
2019-03-15T07:25:38.702Z,21.4
2019-03-15T07:26:30.077Z,21.4
2019-03-15T07:27:20.044Z,21.4
2019-03-15T07:28:09.507Z,21.4
2019-03-15T07:28:59.687Z,21.4
2019-03-15T07:29:50.015Z,21.4
2019-03-15T07:30:40.431Z,21.4
2019-03-15T07:31:29.842Z,21.4
2019-03-15T07:32:20.199Z,21.3
2019-03-15T07:33:09.693Z,21.3
2019-03-15T07:33:58.884Z,21.3
2019-03-15T07:34:49.804Z,21.3
2019-03-15T07:35:40.682Z,21.3
2019-03-15T07:36:31.991Z,21.3
2019-03-15T07:37:21.092Z,21.3
2019-03-15T07:38:10.306Z,21.3
2019-03-15T07:38:59.623Z,21.3
2019-03-15T07:39:50.261Z,21.3
2019-03-15T07:40:40.486Z,21.2
2019-03-15T07:41:32.724Z,21.2
2019-03-15T07:42:20.564Z,21.2
2019-03-15T07:43:11.359Z,21.2
2019-03-15T07:44:00.018Z,21.2
2019-03-15T07:44:53.923Z,21.2
2019-03-15T07:45:40.978Z,21.3
2019-03-15T07:46:30.078Z,21.3
2019-03-15T07:47:20.743Z,21.3
2019-03-15T07:48:29.056Z,21.4
2019-03-15T07:49:01.071Z,21.4
2019-03-15T07:49:50.293Z,21.4
2019-03-15T07:50:41.653Z,21.4
2019-03-15T07:51:31.456Z,21.5
2019-03-15T07:52:21.948Z,21.5
2019-03-15T07:53:11.385Z,21.6
2019-03-15T07:54:01.223Z,21.6
2019-03-15T07:54:51.592Z,21.6
2019-03-15T07:55:41.933Z,21.6
2019-03-15T07:56:34.988Z,21.6
2019-03-15T07:57:21.831Z,21.6
2019-03-15T07:58:12.000Z,21.6
2019-03-15T07:59:01.793Z,21.6
2019-03-15T07:59:51.154Z,21.6
2019-03-15T08:00:56.365Z,21.6
2019-03-15T08:01:31.402Z,21.6
2019-03-15T08:02:21.995Z,21.6
2019-03-15T08:03:11.580Z,21.5
2019-03-15T08:04:15.791Z,21.6
2019-03-15T08:04:52.552Z,21.5
2019-03-15T08:05:42.602Z,21.5
2019-03-15T08:06:42.628Z,21.4
2019-03-15T08:07:49.382Z,21.4
2019-03-15T08:08:12.682Z,21.4
2019-03-15T08:09:01.950Z,21.4
2019-03-15T08:09:56.198Z,21.4
2019-03-15T08:10:41.618Z,21.4
2019-03-15T08:11:31.889Z,21.4
2019-03-15T08:12:22.749Z,21.4
2019-03-15T08:13:12.735Z,21.4
2019-03-15T08:14:02.269Z,21.4
2019-03-15T08:14:52.861Z,21.4
2019-03-15T08:15:42.978Z,21.4
2019-03-15T08:16:36.952Z,21.4
2019-03-15T08:17:22.834Z,21.4
2019-03-15T08:18:12.869Z,21.4
2019-03-15T08:19:06.731Z,21.4
2019-03-15T08:19:52.697Z,21.4
2019-03-15T08:20:43.451Z,21.3
2019-03-15T08:21:50.674Z,21.3
2019-03-15T08:22:37.522Z,21.4
2019-03-15T08:23:17.201Z,21.4
2019-03-15T08:24:17.914Z,21.4
2019-03-15T08:24:58.854Z,21.5
2019-03-15T08:25:43.551Z,21.5
2019-03-15T08:26:51.658Z,21.5
2019-03-15T08:27:39.788Z,21.5
2019-03-15T08:28:29.655Z,21.6
2019-03-15T08:29:09.170Z,21.6
2019-03-15T08:30:27.858Z,21.6
2019-03-15T08:31:49.384Z,21.6
2019-03-15T08:32:43.058Z,21.6
2019-03-15T08:33:51.076Z,21.6
2019-03-15T08:34:39.751Z,21.6
2019-03-15T08:35:05.608Z,21.6
2019-03-15T08:36:06.571Z,21.6
2019-03-15T08:36:56.534Z,21.6
2019-03-15T08:37:31.080Z,21.6
2019-03-15T08:38:22.106Z,21.6
2019-03-15T08:39:11.163Z,21.6
2019-03-15T08:40:01.695Z,21.6
2019-03-15T08:40:51.851Z,21.6
2019-03-15T08:41:42.526Z,21.6
2019-03-15T08:42:34.334Z,21.6
2019-03-15T08:43:35.427Z,21.6
2019-03-15T08:44:11.448Z,21.5
2019-03-15T08:46:41.521Z,21.5
2019-03-15T08:47:47.233Z,21.5
2019-03-15T08:48:21.801Z,21.5
2019-03-15T08:49:10.508Z,21.5
2019-03-15T08:50:03.400Z,21.4
2019-03-15T08:51:06.613Z,21.4
2019-03-15T08:52:05.447Z,21.4
2019-03-15T08:52:31.912Z,21.4
2019-03-15T08:53:21.407Z,21.4
2019-03-15T08:54:13.115Z,21.4
2019-03-15T08:55:30.963Z,21.4
2019-03-15T08:55:54.386Z,21.4
2019-03-15T08:56:42.592Z,21.4
2019-03-15T08:57:33.631Z,21.4
2019-03-15T08:58:28.800Z,21.4
2019-03-15T08:59:13.772Z,21.4
2019-03-15T09:00:03.894Z,21.4
2019-03-15T09:00:51.746Z,21.4
2019-03-15T09:01:42.982Z,21.4
2019-03-15T09:02:47.463Z,21.3
2019-03-15T09:03:53.537Z,21.3
2019-03-15T09:04:14.610Z,21.4
2019-03-15T09:05:57.471Z,21.4
2019-03-15T09:06:46.649Z,21.4
2019-03-15T09:07:33.624Z,21.4
2019-03-15T09:08:52.698Z,21.5
2019-03-15T09:09:28.958Z,21.5
2019-03-15T09:11:00.061Z,21.5
2019-03-15T09:11:40.414Z,21.6
2019-03-15T09:12:30.338Z,21.6
2019-03-15T09:13:22.117Z,21.6
2019-03-15T09:14:11.174Z,21.6
2019-03-15T09:15:04.376Z,21.6
2019-03-15T09:15:50.933Z,21.6
2019-03-15T09:16:55.853Z,21.6
2019-03-15T09:17:31.244Z,21.6
2019-03-15T09:18:50.200Z,21.6
2019-03-15T09:19:26.080Z,21.5
2019-03-15T09:20:01.074Z,21.5
2019-03-15T09:20:50.693Z,21.5
2019-03-15T09:21:41.871Z,21.5
2019-03-15T09:22:45.861Z,21.4
2019-03-15T09:23:22.181Z,21.4
2019-03-15T09:24:25.793Z,21.4
2019-03-15T09:25:01.534Z,21.4
2019-03-15T09:25:51.626Z,21.4
2019-03-15T09:26:41.110Z,21.4
2019-03-15T09:28:03.853Z,21.4
2019-03-15T09:28:21.790Z,21.4
2019-03-15T09:29:12.135Z,21.4
2019-03-15T09:30:01.875Z,21.4
2019-03-15T09:31:21.140Z,21.4
2019-03-15T09:32:13.203Z,21.4
2019-03-15T09:32:45.750Z,21.4
2019-03-15T09:33:42.983Z,21.4
2019-03-15T09:34:17.145Z,21.4
2019-03-15T09:35:36.809Z,21.4
2019-03-15T09:35:57.490Z,21.4
2019-03-15T09:36:58.492Z,21.4
2019-03-15T09:37:39.267Z,21.3
2019-03-15T09:38:29.977Z,21.3
2019-03-15T09:39:19.767Z,21.3
2019-03-15T09:40:09.160Z,21.3
2019-03-15T09:41:41.879Z,21.3
2019-03-15T09:42:09.153Z,21.3
2019-03-15T10:06:37.233Z,21.4
2019-03-15T10:07:48.559Z,21.4
2019-03-15T10:08:17.963Z,21.3
2019-03-15T10:09:07.947Z,21.3
2019-03-15T10:09:57.359Z,21.3
2019-03-15T10:10:51.254Z,21.3
2019-03-15T10:11:38.042Z,21.3
2019-03-15T10:12:27.304Z,21.3
2019-03-15T10:13:17.320Z,21.3
2019-03-15T10:14:08.563Z,21.3
2019-03-15T10:14:58.004Z,21.3
2019-03-15T10:15:49.780Z,21.3
2019-03-15T10:16:37.261Z,21.3
2019-03-15T10:17:29.961Z,21.3
2019-03-15T10:18:17.964Z,21.3
2019-03-15T10:19:08.116Z,21.3
2019-03-15T10:19:58.586Z,21.3
2019-03-15T10:20:52.349Z,21.3
2019-03-15T10:21:38.459Z,21.2
2019-03-15T10:22:28.521Z,21.2
2019-03-15T10:23:18.579Z,21.2
2019-03-15T10:24:08.449Z,21.2
2019-03-15T10:24:57.759Z,21.2
2019-03-15T10:25:56.804Z,21.2
2019-03-15T10:26:38.606Z,21.3
2019-03-15T10:27:28.661Z,21.3
2019-03-15T10:28:18.428Z,21.3
2019-03-15T10:29:26.101Z,21.3
2019-03-15T10:29:59.543Z,21.3
2019-03-15T10:30:48.314Z,21.3
2019-03-15T10:31:39.021Z,21.3
2019-03-15T10:32:29.528Z,21.4
2019-03-15T10:33:19.223Z,21.4
2019-03-15T10:34:12.051Z,21.4
2019-03-15T10:34:59.356Z,21.4
2019-03-15T10:35:49.788Z,21.4
2019-03-15T10:36:41.861Z,21.4
2019-03-15T10:37:30.450Z,21.4
2019-03-15T10:38:23.518Z,21.4
2019-03-15T10:39:10.185Z,21.4
2019-03-15T10:39:59.992Z,21.4
2019-03-15T10:40:50.440Z,21.3
2019-03-15T10:41:43.945Z,21.3
2019-03-15T10:42:30.803Z,21.3
2019-03-15T10:43:20.495Z,21.3
2019-03-15T10:44:11.675Z,21.3
2019-03-15T10:45:00.422Z,21.3
2019-03-15T10:45:51.218Z,21.3
2019-03-15T10:46:43.110Z,21.3
2019-03-15T10:47:30.874Z,21.3
2019-03-15T10:48:32.053Z,21.3
2019-03-15T10:49:10.898Z,21.3
2019-03-15T10:50:00.399Z,21.3
2019-03-15T10:50:50.209Z,21.2
2019-03-15T10:51:41.412Z,21.2
2019-03-15T10:52:30.604Z,21.2
2019-03-15T10:53:21.797Z,21.2
2019-03-15T10:54:11.880Z,21.2
2019-03-15T10:55:01.112Z,21.2
2019-03-15T10:56:20.452Z,21.2
2019-03-15T10:56:41.697Z,21.2
2019-03-15T10:57:31.212Z,21.2
2019-03-15T10:58:21.351Z,21.2
2019-03-15T11:00:01.688Z,21.2
2019-03-15T11:00:51.667Z,21.2
2019-03-15T11:08:25.061Z,21.2
2019-03-15T11:09:13.008Z,21.2
2019-03-15T11:10:02.757Z,21.2
2019-03-15T11:10:52.434Z,21.3
2019-03-15T11:11:43.096Z,21.3
2019-03-15T11:12:32.819Z,21.3
2019-03-15T11:13:23.246Z,21.3
2019-03-15T11:14:12.977Z,21.3
2019-03-15T11:15:02.281Z,21.4
2019-03-15T11:15:53.350Z,21.4
2019-03-15T11:16:42.956Z,21.4
2019-03-15T11:17:33.369Z,21.4
2019-03-15T11:18:23.554Z,21.4
2019-03-15T11:19:16.969Z,21.4
2019-03-15T11:20:03.032Z,21.4
2019-03-15T11:20:53.443Z,21.3
2019-03-15T11:21:43.783Z,21.3
2019-03-15T11:22:32.988Z,21.3
2019-03-15T11:23:22.778Z,21.3
2019-03-15T11:24:13.125Z,21.3
2019-03-15T11:25:18.047Z,21.3
2019-03-15T11:25:53.490Z,21.3
2019-03-15T11:26:43.836Z,21.3
2019-03-15T11:27:33.071Z,21.3
2019-03-15T11:28:23.802Z,21.3
2019-03-15T11:29:13.750Z,21.3
2019-03-15T11:30:03.763Z,21.3
2019-03-15T11:30:53.866Z,21.3
2019-03-15T11:31:43.654Z,21.3
2019-03-15T11:32:33.975Z,21.2
2019-03-15T11:33:24.085Z,21.3
2019-03-15T11:34:13.841Z,21.2
2019-03-15T11:35:04.045Z,21.2
2019-03-15T11:35:53.958Z,21.2
2019-03-15T11:36:58.786Z,21.2
2019-03-15T11:37:34.620Z,21.2
2019-03-15T11:44:14.810Z,21.1
2019-03-15T11:45:05.202Z,21.1
2019-03-15T11:45:54.981Z,21.1
2019-03-15T11:48:25.339Z,21.2
2019-03-15T11:49:15.142Z,21.2
2019-03-15T11:50:05.717Z,21.2
2019-03-15T11:50:55.009Z,21.3
2019-03-15T11:51:48.954Z,21.3
2019-03-15T11:52:35.079Z,21.3
2019-03-15T11:53:24.906Z,21.3
2019-03-15T11:54:15.323Z,21.3
2019-03-15T11:55:05.550Z,21.4
2019-03-15T11:55:54.858Z,21.4
2019-03-15T11:56:45.664Z,21.3
2019-03-15T11:57:36.042Z,21.3
2019-03-15T11:58:25.811Z,21.3
2019-03-15T11:59:15.914Z,21.3
2019-03-15T12:00:05.974Z,21.3
2019-03-15T12:00:55.698Z,21.3
2019-03-15T12:01:45.753Z,21.3
2019-03-15T12:02:35.616Z,21.3
2019-03-15T12:03:26.702Z,21.3
2019-03-15T12:04:16.238Z,21.3
2019-03-15T12:06:37.224Z,21.3
2019-03-15T12:07:27.561Z,21.3
2019-03-15T12:08:17.484Z,21.2
2019-03-15T12:09:07.771Z,21.2
2019-03-15T12:09:58.026Z,21.2
2019-03-15T12:10:48.424Z,21.2
2019-03-15T12:11:37.863Z,21.2
2019-03-15T12:12:28.926Z,21.2
2019-03-15T12:13:18.265Z,21.2
2019-03-15T12:14:08.370Z,21.2
2019-03-15T12:14:57.890Z,21.2
2019-03-15T12:20:52.493Z,21.1
2019-03-15T12:21:38.655Z,21.1
2019-03-15T12:22:29.164Z,21.1
2019-03-15T12:23:18.765Z,21.1
2019-03-15T12:24:07.930Z,21.1
2019-03-15T12:24:59.147Z,21.1
2019-03-15T12:25:48.900Z,21.1
2019-03-15T12:26:47.203Z,21.1
2019-03-15T12:27:29.384Z,21.1
2019-03-15T12:28:19.082Z,21.1
2019-03-15T12:29:09.414Z,21.1
2019-03-15T12:33:20.006Z,21.2
2019-03-15T12:34:10.289Z,21.2
2019-03-15T12:34:59.606Z,21.2
2019-03-15T12:35:50.000Z,21.2
2019-03-15T12:36:39.995Z,21.2
2019-03-15T12:37:30.529Z,21.3
2019-03-15T12:38:19.836Z,21.2
2019-03-15T12:39:09.354Z,21.2
2019-03-15T12:40:00.699Z,21.2
2019-03-15T12:40:50.043Z,21.2
2019-03-15T12:41:40.022Z,21.2
2019-03-15T12:42:30.324Z,21.2
2019-03-15T12:43:20.416Z,21.2
2019-03-15T12:44:13.144Z,21.2
2019-03-15T12:45:00.903Z,21.2
2019-03-15T12:45:50.844Z,21.2
2019-03-15T12:46:39.806Z,21.2
2019-03-15T12:47:29.916Z,21.2
2019-03-15T12:48:20.763Z,21.2
2019-03-15T12:49:10.236Z,21.2
2019-03-15T12:58:20.948Z,21.1
2019-03-15T12:59:10.668Z,21.1
2019-03-15T13:00:01.578Z,21.1
2019-03-15T13:02:30.470Z,21.1
2019-03-15T13:03:21.807Z,21.1
2019-03-15T13:04:11.360Z,21.1
2019-03-15T13:05:01.603Z,21
2019-03-15T13:05:51.725Z,21.1
2019-03-15T13:06:42.060Z,21
2019-03-15T13:07:32.803Z,21
2019-03-15T13:08:21.886Z,21
2019-03-15T13:09:12.505Z,21.1
2019-03-15T13:10:01.829Z,21.1
2019-03-15T13:10:51.835Z,21.1
2019-03-15T13:14:12.321Z,21.2
2019-03-15T13:15:02.906Z,21.2
2019-03-15T13:15:52.783Z,21.2
2019-03-15T13:16:42.191Z,21.2
2019-03-15T13:17:32.809Z,21.3
2019-03-15T13:18:22.952Z,21.3
2019-03-15T13:19:12.907Z,21.3
2019-03-15T13:20:03.149Z,21.3
2019-03-15T13:20:53.082Z,21.3
2019-03-15T13:21:42.022Z,21.3
2019-03-15T13:22:31.879Z,21.3
2019-03-15T13:23:23.041Z,21.3
2019-03-15T13:24:13.004Z,21.3
2019-03-15T13:25:03.876Z,21.2
2019-03-15T13:25:55.534Z,21.2
2019-03-15T13:26:44.121Z,21.2
2019-03-15T13:27:33.609Z,21.2
2019-03-15T13:28:23.856Z,21.2
2019-03-15T13:29:13.383Z,21.2
2019-03-15T13:30:04.248Z,21.2
2019-03-15T13:30:53.326Z,21.2
2019-03-15T13:31:43.818Z,21.2
2019-03-15T13:32:34.140Z,21.2
2019-03-15T13:33:27.053Z,21.2
2019-03-15T13:39:14.093Z,21.1
2019-03-15T13:40:04.913Z,21.1
2019-03-15T13:40:54.723Z,21.1
2019-03-15T13:41:44.428Z,21.1
2019-03-15T13:42:34.854Z,21.1
2019-03-15T13:43:25.187Z,21.1
2019-03-15T13:44:14.697Z,21
2019-03-15T13:45:05.210Z,21
2019-03-15T13:45:54.860Z,21
2019-03-15T13:46:44.173Z,21
2019-03-15T13:47:35.246Z,21
2019-03-15T13:48:24.698Z,21
2019-03-15T13:49:14.906Z,21
2019-03-15T13:50:04.645Z,21
2019-03-15T13:50:55.042Z,21
2019-03-15T13:51:45.589Z,21.1
2019-03-15T13:52:35.279Z,21.1
2019-03-15T13:53:25.907Z,21.1
2019-03-15T13:56:48.985Z,21.2
2019-03-15T13:57:35.359Z,21.2
2019-03-15T13:58:25.696Z,21.2
2019-03-15T13:59:15.247Z,21.2
2019-03-15T14:00:06.427Z,21.2
2019-03-15T14:00:55.359Z,21.2
2019-03-15T14:01:45.102Z,21.2
2019-03-15T14:02:36.331Z,21.2
2019-03-15T14:03:26.159Z,21.2
2019-03-15T14:04:16.124Z,21.2
2019-03-15T14:05:06.737Z,21.2
2019-03-15T14:15:08.466Z,21.1
2019-03-15T14:16:00.230Z,21.1
2019-03-15T14:16:48.686Z,21.1
2019-03-15T14:17:38.676Z,21.1
2019-03-15T14:18:28.989Z,21.1
2019-03-15T14:19:18.210Z,21.1
2019-03-15T14:20:08.370Z,21.1
2019-03-15T14:20:58.897Z,21.1
2019-03-15T14:21:52.196Z,21.1
2019-03-15T14:22:38.510Z,21.1
2019-03-15T14:23:28.500Z,21.1
2019-03-15T14:24:18.973Z,21.1
2019-03-15T14:25:08.889Z,21.1
2019-03-15T14:25:58.414Z,21
2019-03-15T14:26:52.890Z,21
2019-03-15T14:27:44.215Z,21
2019-03-15T14:28:29.181Z,21
2019-03-15T14:29:19.469Z,20.9
2019-03-15T14:30:09.040Z,21
2019-03-15T14:30:58.820Z,21
2019-03-15T14:31:49.401Z,21
2019-03-15T14:32:39.540Z,21.1
2019-03-15T14:33:29.860Z,21.1
2019-03-15T14:35:10.093Z,21.1
2019-03-15T14:37:41.645Z,21.2
2019-03-15T14:38:30.918Z,21.2
2019-03-15T14:39:21.240Z,21.2
2019-03-15T14:40:11.744Z,21.2
2019-03-15T14:41:02.358Z,21.2
2019-03-15T14:41:52.237Z,21.2
2019-03-15T14:42:41.663Z,21.2
2019-03-15T14:43:32.451Z,21.2
2019-03-15T14:44:25.101Z,21.2
2019-03-15T14:45:12.264Z,21.2
2019-03-15T14:56:51.493Z,21.1
2019-03-15T14:58:01.671Z,21.1
2019-03-15T14:58:31.685Z,21.1
2019-03-15T14:59:21.228Z,21.1
2019-03-15T15:00:14.511Z,21.1
2019-03-15T15:01:01.728Z,21.1
2019-03-15T15:01:51.786Z,21.1
2019-03-15T15:02:41.381Z,21.1
2019-03-15T15:03:31.954Z,21.1
2019-03-15T15:04:21.999Z,21
2019-03-15T15:05:11.006Z,21
2019-03-15T15:06:02.196Z,21
2019-03-15T15:06:51.035Z,21
2019-03-15T15:07:41.654Z,21
2019-03-15T15:08:31.160Z,21
2019-03-15T15:09:21.802Z,21
2019-03-15T15:10:11.564Z,20.9
2019-03-15T15:11:02.708Z,20.9
2019-03-15T15:11:51.968Z,20.9
2019-03-15T15:12:42.275Z,20.9
2019-03-15T15:13:32.601Z,20.9
2019-03-15T15:14:22.400Z,21
2019-03-15T15:15:12.743Z,21
2019-03-15T15:16:02.595Z,21.1
2019-03-15T15:16:52.564Z,21.1
2019-03-15T15:18:32.774Z,21.2
2019-03-15T15:19:22.847Z,21.2
2019-03-15T15:20:12.531Z,21.2
2019-03-15T15:21:02.953Z,21.2
2019-03-15T15:21:55.799Z,21.3
2019-03-15T15:22:43.095Z,21.2
2019-03-15T15:23:36.700Z,21.3
2019-03-15T15:24:22.605Z,21.2
2019-03-15T15:25:13.222Z,21.2
2019-03-15T15:26:03.788Z,21.2
2019-03-15T15:26:53.292Z,21.2
2019-03-15T15:27:43.359Z,21.2
2019-03-15T15:29:26.649Z,21.2
2019-03-15T15:36:04.234Z,21.1
2019-03-15T15:36:54.567Z,21.1
2019-03-15T15:37:44.386Z,21.1
2019-03-15T15:38:34.399Z,21.1
2019-03-15T15:39:24.266Z,21.1
2019-03-15T15:40:14.519Z,21.1
2019-03-15T15:41:04.575Z,21.1
2019-03-15T15:41:53.884Z,21.1
2019-03-15T15:42:44.709Z,21.1
2019-03-15T15:43:34.484Z,21.1
2019-03-15T15:45:14.649Z,21
2019-03-15T15:46:04.726Z,21
2019-03-15T15:46:54.216Z,21
2019-03-15T15:47:44.798Z,21
2019-03-15T15:48:34.880Z,21
2019-03-15T15:49:28.073Z,20.9
2019-03-15T15:50:14.752Z,21
2019-03-15T15:51:04.796Z,20.9
2019-03-15T15:51:55.608Z,20.9
2019-03-15T15:52:44.336Z,20.9
2019-03-15T15:53:35.740Z,20.9
2019-03-15T15:54:25.526Z,20.9
2019-03-15T15:55:15.108Z,20.9
2019-03-15T15:56:05.153Z,21
2019-03-15T15:56:57.761Z,21
2019-03-15T15:57:46.413Z,21.1
2019-03-15T15:58:35.058Z,21.1
2019-03-15T16:01:54.950Z,21.2
2019-03-15T16:02:46.003Z,21.2
2019-03-15T16:03:35.718Z,21.2
2019-03-15T16:04:25.718Z,21.2
2019-03-15T16:05:16.032Z,21.2
2019-03-15T16:15:08.691Z,21.1
2019-03-15T16:16:47.931Z,21.1
2019-03-15T16:17:37.915Z,21.1
2019-03-15T16:18:32.335Z,21.1
2019-03-15T16:19:18.109Z,21.1
2019-03-15T16:20:08.757Z,21.1
2019-03-15T16:20:58.539Z,21.1
2019-03-15T16:21:48.587Z,21.1
2019-03-15T16:22:38.707Z,21